createdAt,value
2022-12-11T00:01:39.860Z,135.23
2022-12-11T00:04:07.014Z,127.10
2022-12-11T00:06:34.197Z,134.35
2022-12-11T00:09:01.350Z,121.50
2022-12-11T00:11:28.672Z,138.82
2022-12-11T00:13:56.089Z,121.95
2022-12-11T00:16:26.942Z,105.85
2022-12-11T00:18:54.713Z,114.53
2022-12-11T00:21:21.881Z,112.63
2022-12-11T00:23:49.099Z,108.43
2022-12-11T00:26:16.811Z,103.28
2022-12-11T00:28:44.722Z,120.07
2022-12-11T00:31:16.676Z,122.43
2022-12-11T00:33:44.610Z,110.10
2022-12-11T00:36:12.918Z,101.30
2022-12-11T00:38:40.115Z,109.45
2022-12-11T00:41:07.283Z,99.60
2022-12-11T00:43:34.459Z,104.88
2022-12-11T00:46:01.842Z,102.82
2022-12-11T00:48:29.050Z,90.85
2022-12-11T00:50:56.237Z,108.45
2022-12-11T00:53:23.419Z,89.07
2022-12-11T00:55:50.600Z,102.55
2022-12-11T00:58:17.811Z,114.80
2022-12-11T01:00:45.343Z,129.32
2022-12-11T01:03:14.052Z,121.78
2022-12-11T01:05:41.219Z,110.47
2022-12-11T01:08:08.542Z,113.18
2022-12-11T01:10:35.736Z,115.65
2022-12-11T01:13:07.464Z,115.32
2022-12-11T01:15:41.077Z,119.50
2022-12-11T01:18:08.594Z,120.23
2022-12-11T01:20:35.786Z,113.00
2022-12-11T01:23:02.929Z,95.75
2022-12-11T01:25:30.182Z,102.97
2022-12-11T01:27:57.351Z,100.95
2022-12-11T01:30:25.685Z,101.43
2022-12-11T01:32:53.276Z,95.93
2022-12-11T01:35:20.711Z,89.00
2022-12-11T01:37:48.083Z,87.93
2022-12-11T01:40:16.608Z,104.00
2022-12-11T01:42:43.945Z,104.45
2022-12-11T01:45:26.605Z,93.30
2022-12-11T01:48:08.395Z,91.07
2022-12-11T01:50:37.435Z,100.32
2022-12-11T01:53:06.715Z,94.65
2022-12-11T01:55:34.072Z,99.07
2022-12-11T01:58:01.439Z,87.45
2022-12-11T02:00:28.591Z,90.82
2022-12-11T02:02:55.778Z,92.60
2022-12-11T02:05:22.970Z,87.28
2022-12-11T02:07:58.427Z,80.20
2022-12-11T02:10:29.428Z,77.70
2022-12-11T02:13:01.964Z,85.38
2022-12-11T02:15:29.106Z,78.88
2022-12-11T02:18:14.318Z,92.10
2022-12-11T02:20:41.454Z,90.55
2022-12-11T02:23:11.406Z,91.93
2022-12-11T02:25:57.160Z,90.05
2022-12-11T02:28:27.409Z,86.82
2022-12-11T02:31:06.673Z,95.75
2022-12-11T02:33:37.239Z,85.30
2022-12-11T02:36:05.712Z,95.25
2022-12-11T02:38:34.786Z,97.00
2022-12-11T02:41:03.502Z,82.18
2022-12-11T02:43:31.635Z,93.32
2022-12-11T02:45:59.856Z,83.03
2022-12-11T02:48:27.054Z,93.95
2022-12-11T02:50:56.826Z,90.10
2022-12-11T02:53:25.211Z,97.53
2022-12-11T02:55:55.199Z,104.57
2022-12-11T02:58:24.323Z,89.95
2022-12-11T03:00:51.504Z,82.90
2022-12-11T03:03:18.774Z,79.65
2022-12-11T03:05:46.327Z,71.60
2022-12-11T03:08:17.455Z,70.85
2022-12-11T03:10:45.238Z,71.28
2022-12-11T03:13:14.242Z,80.35
2022-12-11T03:15:41.386Z,69.63
2022-12-11T03:18:18.903Z,68.75
2022-12-11T03:20:48.195Z,64.43
2022-12-11T03:23:25.867Z,80.28
2022-12-11T03:25:55.419Z,65.13
2022-12-11T03:28:37.359Z,76.30
2022-12-11T03:31:08.530Z,70.13
2022-12-11T03:33:38.404Z,65.03
2022-12-11T03:36:11.251Z,77.30
2022-12-11T03:38:42.790Z,78.45
2022-12-11T03:41:10.951Z,73.07
2022-12-11T03:43:39.241Z,70.93
2022-12-11T03:46:06.582Z,77.28
2022-12-11T03:48:34.512Z,76.18
2022-12-11T03:51:03.166Z,68.70
2022-12-11T03:53:30.644Z,82.07
2022-12-11T03:55:58.343Z,73.82
2022-12-11T03:58:25.492Z,77.18
2022-12-11T04:00:52.811Z,68.82
2022-12-11T04:03:19.984Z,66.18
2022-12-11T04:05:51.426Z,78.72
2022-12-11T04:08:20.753Z,80.20
2022-12-11T04:10:48.391Z,77.22
2022-12-11T04:13:15.797Z,76.30
2022-12-11T04:15:43.037Z,81.80
2022-12-11T04:18:29.083Z,66.57
2022-12-11T04:21:15.668Z,74.32
2022-12-11T04:24:01.959Z,74.85
2022-12-11T04:26:29.110Z,71.88
2022-12-11T04:28:56.255Z,79.78
2022-12-11T04:31:23.517Z,87.68
2022-12-11T04:33:50.919Z,80.88
2022-12-11T04:36:18.149Z,85.00
2022-12-11T04:38:45.284Z,74.40
2022-12-11T04:41:13.600Z,84.05
2022-12-11T04:43:41.085Z,76.57
2022-12-11T04:46:09.559Z,77.85
2022-12-11T04:48:37.290Z,75.95
2022-12-11T04:51:04.941Z,83.80
2022-12-11T04:53:32.201Z,74.72
2022-12-11T04:55:59.445Z,71.88
2022-12-11T04:58:27.171Z,67.85
2022-12-11T05:00:54.407Z,78.72
2022-12-11T05:03:21.605Z,77.95
2022-12-11T05:05:52.631Z,78.72
2022-12-11T05:08:20.736Z,75.95
2022-12-11T05:10:58.334Z,85.35
2022-12-11T05:13:25.561Z,64.75
2022-12-11T05:15:52.755Z,73.68
2022-12-11T05:18:20.118Z,70.78
2022-12-11T05:20:55.577Z,70.68
2022-12-11T05:23:22.871Z,78.43
2022-12-11T05:25:59.885Z,83.00
2022-12-11T05:28:28.220Z,76.15
2022-12-11T05:30:56.784Z,78.95
2022-12-11T05:33:24.141Z,72.60
2022-12-11T05:35:51.360Z,81.03
2022-12-11T05:38:18.540Z,71.47
2022-12-11T05:40:45.785Z,71.88
2022-12-11T05:43:12.943Z,71.07
2022-12-11T05:45:40.063Z,66.00
2022-12-11T05:48:07.283Z,61.15
2022-12-11T05:50:34.671Z,70.15
2022-12-11T05:53:02.234Z,67.68
2022-12-11T05:55:29.371Z,78.03
2022-12-11T05:57:56.573Z,66.78
2022-12-11T06:00:23.713Z,75.93
2022-12-11T06:02:50.874Z,63.42
2022-12-11T06:05:18.107Z,64.65
2022-12-11T06:07:45.275Z,66.88
2022-12-11T06:10:12.915Z,65.50
2022-12-11T06:12:40.873Z,56.10
2022-12-11T06:15:08.374Z,55.30
2022-12-11T06:17:35.712Z,62.80
2022-12-11T06:20:02.882Z,58.50
2022-12-11T06:22:30.039Z,63.13
2022-12-11T06:24:57.170Z,66.88
2022-12-11T06:27:24.447Z,69.75
2022-12-11T06:29:51.622Z,67.60
2022-12-11T06:32:18.750Z,63.40
2022-12-11T06:34:45.880Z,62.25
2022-12-11T06:37:13.051Z,63.75
2022-12-11T06:39:40.182Z,62.72
2022-12-11T06:42:07.312Z,63.85
2022-12-11T06:44:34.502Z,66.10
2022-12-11T06:47:01.641Z,70.78
2022-12-11T06:49:28.778Z,70.88
2022-12-11T06:51:55.939Z,66.22
2022-12-11T06:54:27.247Z,63.80
2022-12-11T06:56:54.412Z,66.68
2022-12-11T06:59:21.576Z,58.22
2022-12-11T07:01:48.798Z,72.18
2022-12-11T07:04:15.989Z,66.78
2022-12-11T07:06:43.291Z,70.82
2022-12-11T07:09:10.427Z,72.88
2022-12-11T07:11:37.570Z,65.72
2022-12-11T07:14:04.785Z,58.55
2022-12-11T07:16:31.969Z,64.70
2022-12-11T07:18:59.147Z,68.65
2022-12-11T07:21:26.323Z,66.68
2022-12-11T07:23:53.464Z,68.72
2022-12-11T07:26:22.224Z,69.55
2022-12-11T07:28:49.861Z,73.18
2022-12-11T07:31:22.199Z,64.03
2022-12-11T07:33:53.367Z,62.25
2022-12-11T07:36:20.590Z,66.00
2022-12-11T07:38:47.784Z,67.97
2022-12-11T07:41:15.546Z,79.00
2022-12-11T07:43:43.526Z,64.65
2022-12-11T07:46:21.525Z,75.07
2022-12-11T07:48:49.224Z,59.33
2022-12-11T07:51:16.397Z,74.35
2022-12-11T07:53:47.551Z,69.22
2022-12-11T07:56:15.649Z,64.90
2022-12-11T07:58:43.094Z,67.47
2022-12-11T08:01:14.725Z,68.93
2022-12-11T08:03:42.321Z,72.75
2022-12-11T08:06:09.863Z,75.30
2022-12-11T08:08:37.768Z,67.40
2022-12-11T08:11:05.553Z,88.75
2022-12-11T08:13:32.686Z,76.38
2022-12-11T08:15:59.972Z,74.50
2022-12-11T08:18:27.136Z,78.45
2022-12-11T08:20:54.267Z,63.30
2022-12-11T08:23:21.530Z,74.18
2022-12-11T08:25:48.679Z,67.75
2022-12-11T08:28:15.794Z,67.90
2022-12-11T08:30:43.051Z,63.55
2022-12-11T08:33:10.215Z,63.38
2022-12-11T08:35:39.850Z,76.03
2022-12-11T08:38:07.025Z,67.25
2022-12-11T08:40:34.181Z,73.75
2022-12-11T08:43:01.369Z,74.32
2022-12-11T08:45:28.607Z,68.70
2022-12-11T08:47:55.749Z,73.72
2022-12-11T08:50:22.911Z,66.13
2022-12-11T08:52:50.062Z,62.92
2022-12-11T08:55:17.282Z,64.28
2022-12-11T08:57:44.418Z,63.15
2022-12-11T09:00:12.406Z,61.63
2022-12-11T09:02:39.758Z,63.88
2022-12-11T09:05:08.077Z,63.60
2022-12-11T09:07:36.275Z,77.05
2022-12-11T09:10:03.751Z,68.32
2022-12-11T09:12:31.258Z,73.43
2022-12-11T09:14:58.388Z,67.63
2022-12-11T09:17:25.579Z,76.00
2022-12-11T09:19:52.781Z,64.88
2022-12-11T09:22:20.021Z,66.47
2022-12-11T09:24:47.279Z,51.65
2022-12-11T09:27:14.468Z,71.00
2022-12-11T09:29:41.748Z,61.25
2022-12-11T09:32:08.952Z,62.65
2022-12-11T09:34:36.133Z,67.28
2022-12-11T09:37:03.325Z,72.18
2022-12-11T09:39:30.536Z,65.05
2022-12-11T09:42:03.510Z,68.18
2022-12-11T09:44:36.171Z,66.65
2022-12-11T09:47:03.428Z,60.20
2022-12-11T09:49:41.686Z,65.57
2022-12-11T09:52:35.407Z,72.38
2022-12-11T09:55:04.955Z,55.70
2022-12-11T09:57:48.006Z,60.42
2022-12-11T10:00:21.254Z,60.38
2022-12-11T10:02:58.257Z,65.50
2022-12-11T10:05:44.324Z,58.03
2022-12-11T10:08:21.648Z,61.72
2022-12-11T10:10:55.139Z,63.53
2022-12-11T10:13:40.895Z,56.90
2022-12-11T10:16:09.308Z,57.55
2022-12-11T10:18:37.186Z,59.72
2022-12-11T10:21:04.828Z,59.03
2022-12-11T10:23:35.679Z,53.80
2022-12-11T10:26:12.234Z,56.92
2022-12-11T10:28:39.374Z,58.88
2022-12-11T10:31:20.280Z,54.13
2022-12-11T10:33:56.080Z,72.13
2022-12-11T10:36:31.637Z,58.28
2022-12-11T10:38:58.853Z,59.72
2022-12-11T10:41:34.726Z,60.70
2022-12-11T10:44:01.910Z,55.00
2022-12-11T10:46:30.001Z,55.42
2022-12-11T10:49:01.266Z,56.03
2022-12-11T10:51:31.593Z,58.45
2022-12-11T10:54:06.869Z,48.40
2022-12-11T10:56:35.280Z,52.75
2022-12-11T10:59:02.688Z,46.38
2022-12-11T11:01:31.417Z,53.60
2022-12-11T11:04:15.027Z,53.03
2022-12-11T11:06:42.207Z,53.63
2022-12-11T11:09:28.835Z,59.17
2022-12-11T11:11:55.978Z,50.42
2022-12-11T11:14:23.203Z,56.13
2022-12-11T11:16:51.595Z,58.25
2022-12-11T11:19:32.737Z,52.78
2022-12-11T11:22:00.804Z,54.58
2022-12-11T11:24:30.944Z,71.70
2022-12-11T11:27:13.227Z,59.47
2022-12-11T11:29:42.033Z,56.10
2022-12-11T11:32:16.807Z,56.28
2022-12-11T11:34:43.980Z,59.78
2022-12-11T11:37:24.779Z,62.50
2022-12-11T11:39:53.592Z,63.58
2022-12-11T11:42:31.254Z,65.00
2022-12-11T11:45:08.080Z,72.72
2022-12-11T11:47:41.444Z,64.82
2022-12-11T11:50:08.704Z,65.20
2022-12-11T11:52:39.782Z,58.15
2022-12-11T11:55:22.340Z,57.72
2022-12-11T11:57:50.064Z,67.40
2022-12-11T12:00:22.071Z,66.22
2022-12-11T12:02:51.153Z,51.83
2022-12-11T12:05:23.765Z,59.10
2022-12-11T12:07:50.960Z,56.75
2022-12-11T12:10:21.140Z,58.95
2022-12-11T12:12:57.944Z,61.80
2022-12-11T12:15:25.413Z,59.13
2022-12-11T12:17:55.738Z,66.00
2022-12-11T12:20:26.067Z,58.55
2022-12-11T12:23:11.342Z,65.15
2022-12-11T12:25:38.835Z,61.97
2022-12-11T12:28:05.967Z,59.58
2022-12-11T12:30:39.169Z,68.82
2022-12-11T12:33:21.626Z,55.33
2022-12-11T12:35:58.830Z,59.58
2022-12-11T12:38:38.392Z,64.78
2022-12-11T12:41:14.218Z,67.93
2022-12-11T12:43:50.850Z,61.55
2022-12-11T12:46:36.898Z,58.90
2022-12-11T12:49:04.933Z,58.25
2022-12-11T12:51:32.408Z,59.55
2022-12-11T12:54:01.029Z,59.90
2022-12-11T12:56:29.963Z,58.83
2022-12-11T12:58:57.118Z,55.25
2022-12-11T13:01:31.637Z,67.40
2022-12-11T13:04:01.762Z,70.57
2022-12-11T13:06:58.346Z,63.53
2022-12-11T13:09:26.572Z,59.22
2022-12-11T13:11:57.643Z,62.67
2022-12-11T13:14:28.873Z,63.58
2022-12-11T13:17:06.910Z,64.20
2022-12-11T13:19:40.619Z,63.83
2022-12-11T13:22:15.825Z,73.38
2022-12-11T13:25:04.328Z,76.97
2022-12-11T13:27:38.750Z,66.45
2022-12-11T13:30:14.851Z,72.35
2022-12-11T13:32:50.988Z,68.03
2022-12-11T13:35:18.643Z,65.53
2022-12-11T13:37:46.434Z,72.15
2022-12-11T13:40:21.519Z,76.65
2022-12-11T13:43:09.523Z,77.25
2022-12-11T13:45:56.795Z,70.72
2022-12-11T13:48:26.484Z,65.43
2022-12-11T13:50:54.613Z,77.05
2022-12-11T13:53:22.306Z,68.25
2022-12-11T13:55:58.908Z,64.97
2022-12-11T13:58:26.189Z,66.25
2022-12-11T14:00:55.105Z,66.55
2022-12-11T14:03:22.324Z,72.78
2022-12-11T14:05:49.495Z,74.10
2022-12-11T14:08:22.798Z,73.88
2022-12-11T14:10:56.021Z,79.88
2022-12-11T14:13:25.937Z,73.15
2022-12-11T14:15:53.428Z,70.38
2022-12-11T14:18:24.619Z,68.75
2022-12-11T14:21:01.882Z,70.95
2022-12-11T14:23:30.281Z,73.18
2022-12-11T14:25:59.327Z,71.85
2022-12-11T14:28:27.895Z,70.95
2022-12-11T14:30:59.394Z,71.95
2022-12-11T14:33:29.121Z,74.75
2022-12-11T14:35:56.415Z,78.50
2022-12-11T14:38:26.615Z,71.97
2022-12-11T14:40:56.168Z,66.95
2022-12-11T14:43:29.247Z,69.63
2022-12-11T14:45:58.652Z,59.72
2022-12-11T14:48:31.354Z,63.13
2022-12-11T14:51:00.159Z,60.47
2022-12-11T14:53:29.796Z,56.20
2022-12-11T14:55:58.624Z,65.80
2022-12-11T14:58:27.213Z,57.75
2022-12-11T15:01:05.413Z,65.30
2022-12-11T15:03:34.469Z,61.65
2022-12-11T15:06:02.095Z,62.95
2022-12-11T15:08:33.857Z,58.15
2022-12-11T15:11:08.956Z,60.10
2022-12-11T15:13:38.147Z,61.80
2022-12-11T15:16:06.435Z,61.30
2022-12-11T15:18:34.958Z,76.05
2022-12-11T15:21:04.183Z,60.35
2022-12-11T15:23:31.473Z,60.47
2022-12-11T15:25:59.981Z,66.68
2022-12-11T15:28:29.677Z,64.32
2022-12-11T15:30:59.176Z,61.72
2022-12-11T15:33:32.556Z,58.65
2022-12-11T15:38:30.399Z,73.18
2022-12-11T15:40:57.844Z,70.40
2022-12-11T15:43:25.123Z,67.32
2022-12-11T15:45:52.322Z,64.53
2022-12-11T15:48:19.581Z,63.88
2022-12-11T15:50:46.913Z,66.97
2022-12-11T15:53:14.078Z,66.93
2022-12-11T15:55:41.247Z,70.55
2022-12-11T15:58:09.862Z,66.05
2022-12-11T16:00:36.994Z,60.75
2022-12-11T16:03:04.231Z,76.32
2022-12-11T16:05:31.380Z,64.38
2022-12-11T16:07:59.732Z,66.78
2022-12-11T16:10:27.579Z,61.42
2022-12-11T16:12:59.368Z,66.97
2022-12-11T16:15:27.136Z,77.90
2022-12-11T16:18:04.788Z,68.45
2022-12-11T16:20:32.472Z,61.97
2022-12-11T16:23:00.476Z,61.50
2022-12-11T16:25:28.169Z,62.13
2022-12-11T16:27:58.944Z,70.00
2022-12-11T16:30:26.816Z,77.30
2022-12-11T16:32:54.204Z,71.50
2022-12-11T16:35:22.267Z,66.97
2022-12-11T16:37:50.899Z,70.63
2022-12-11T16:40:18.573Z,68.53
2022-12-11T16:42:46.134Z,70.53
2022-12-11T16:45:17.707Z,65.45
2022-12-11T16:47:45.091Z,71.38
2022-12-11T16:50:13.946Z,67.78
2022-12-11T16:52:41.159Z,82.22
2022-12-11T16:55:08.720Z,74.07
2022-12-11T16:57:37.131Z,70.53
2022-12-11T17:00:08.906Z,74.78
2022-12-11T17:02:36.693Z,73.90
2022-12-11T17:05:03.985Z,69.70
2022-12-11T17:07:32.582Z,77.10
2022-12-11T17:10:01.834Z,75.30
2022-12-11T17:12:29.089Z,69.63
2022-12-11T17:14:57.125Z,75.25
2022-12-11T17:17:24.832Z,68.15
2022-12-11T17:19:52.006Z,67.65
2022-12-11T17:22:19.182Z,70.20
2022-12-11T17:24:46.350Z,61.75
2022-12-11T17:27:13.658Z,74.03
2022-12-11T17:29:40.842Z,70.32
2022-12-11T17:32:08.093Z,76.30
2022-12-11T17:34:38.436Z,78.25
2022-12-11T17:37:05.987Z,64.90
2022-12-11T17:39:33.528Z,74.00
2022-12-11T17:42:00.962Z,69.63
2022-12-11T17:44:30.797Z,62.53
2022-12-11T17:46:58.646Z,76.78
2022-12-11T17:49:26.008Z,73.47
2022-12-11T17:51:55.221Z,69.70
2022-12-11T17:54:23.142Z,71.80
2022-12-11T17:56:50.522Z,76.88
2022-12-11T17:59:18.045Z,70.40
2022-12-11T18:01:45.274Z,73.85
2022-12-11T18:04:12.870Z,77.22
2022-12-11T18:06:40.373Z,74.93
2022-12-11T18:09:07.874Z,74.00
2022-12-11T18:11:35.407Z,76.88
2022-12-11T18:14:02.740Z,74.90
2022-12-11T18:16:31.658Z,60.95
2022-12-11T18:18:58.955Z,77.35
2022-12-11T18:21:28.270Z,78.00
2022-12-11T18:23:55.434Z,69.40
2022-12-11T18:26:22.699Z,71.80
2022-12-11T18:28:50.327Z,67.60
2022-12-11T18:31:17.637Z,72.22
2022-12-11T18:33:45.233Z,70.93
2022-12-11T18:36:13.166Z,72.55
2022-12-11T18:38:40.560Z,73.13
2022-12-11T18:41:08.745Z,68.80
2022-12-11T18:43:36.332Z,68.20
2022-12-11T18:46:10.768Z,75.78
2022-12-11T18:48:38.215Z,67.55
2022-12-11T18:51:09.583Z,68.55
2022-12-11T18:53:37.273Z,63.97
2022-12-11T18:56:08.771Z,68.47
2022-12-11T18:58:35.994Z,78.32
2022-12-11T19:01:08.064Z,66.65
2022-12-11T19:03:35.305Z,68.63
2022-12-11T19:06:09.991Z,65.40
2022-12-11T19:08:37.380Z,70.53
2022-12-11T19:11:04.553Z,59.22
2022-12-11T19:13:31.783Z,66.50
2022-12-11T19:15:59.027Z,64.50
2022-12-11T19:18:26.837Z,68.20
2022-12-11T19:21:04.871Z,64.68
2022-12-11T19:23:35.480Z,69.13
2022-12-11T19:26:02.716Z,68.78
2022-12-11T19:28:29.885Z,68.57
2022-12-11T19:30:57.495Z,72.13
2022-12-11T19:33:24.788Z,72.25
2022-12-11T19:36:00.612Z,59.92
2022-12-11T19:38:27.775Z,55.05
2022-12-11T19:40:54.907Z,73.75
2022-12-11T19:43:22.195Z,62.22
2022-12-11T19:45:49.747Z,63.47
2022-12-11T19:48:16.909Z,70.68
2022-12-11T19:50:44.107Z,64.85
2022-12-11T19:53:11.311Z,66.90
2022-12-11T19:55:38.468Z,56.25
2022-12-11T19:58:05.610Z,67.45
2022-12-11T20:00:32.975Z,67.28
2022-12-11T20:03:00.178Z,64.25
2022-12-11T20:05:27.322Z,62.60
2022-12-11T20:07:54.682Z,61.83
2022-12-11T20:10:21.932Z,70.80
2022-12-11T20:12:49.105Z,70.35
2022-12-11T20:15:19.572Z,60.25
2022-12-11T20:17:47.319Z,65.30
2022-12-11T20:20:14.462Z,71.20
2022-12-11T20:22:41.648Z,71.13
2022-12-11T20:25:09.111Z,66.68
2022-12-11T20:27:37.792Z,64.30
2022-12-11T20:30:05.888Z,65.82
2022-12-11T20:32:34.220Z,67.38
2022-12-11T20:35:01.383Z,72.65
2022-12-11T20:37:29.183Z,61.95
2022-12-11T20:39:56.357Z,71.45
2022-12-11T20:42:23.801Z,63.65
2022-12-11T20:44:51.039Z,57.75
2022-12-11T20:47:19.836Z,60.65
2022-12-11T20:49:50.703Z,66.10
2022-12-11T20:52:18.129Z,66.78
2022-12-11T20:54:45.599Z,67.28
2022-12-11T20:57:13.907Z,71.43
2022-12-11T20:59:41.219Z,66.45
2022-12-11T21:02:09.222Z,68.55
2022-12-11T21:04:41.121Z,71.07
2022-12-11T21:07:09.087Z,62.13
2022-12-11T21:09:36.616Z,67.10
2022-12-11T21:12:04.070Z,75.43
2022-12-11T21:14:31.792Z,65.13
2022-12-11T21:16:59.156Z,64.25
2022-12-11T21:19:26.596Z,72.22
2022-12-11T21:21:54.215Z,70.55
2022-12-11T21:24:23.503Z,71.53
2022-12-11T21:26:51.020Z,72.75
2022-12-11T21:29:18.326Z,70.28
2022-12-11T21:31:45.545Z,76.72
2022-12-11T21:34:12.867Z,73.50
2022-12-11T21:36:40.114Z,77.40
2022-12-11T21:39:07.485Z,74.38
2022-12-11T21:41:34.738Z,74.38
2022-12-11T21:46:49.124Z,74.05
2022-12-11T21:49:16.530Z,80.65
2022-12-11T21:51:47.125Z,75.82
2022-12-11T21:54:15.620Z,86.50
2022-12-11T21:56:42.898Z,75.93
2022-12-11T21:59:10.178Z,78.72
2022-12-11T22:01:41.968Z,78.28
2022-12-11T22:04:09.959Z,78.03
2022-12-11T22:06:37.318Z,81.07
2022-12-11T22:09:05.278Z,79.90
2022-12-11T22:11:34.009Z,69.63
2022-12-11T22:14:01.798Z,75.25
2022-12-11T22:16:29.481Z,75.72
2022-12-11T22:18:56.692Z,76.43
2022-12-11T22:21:23.838Z,72.72
2022-12-11T22:23:51.032Z,79.22
2022-12-11T22:26:19.920Z,78.43
2022-12-11T22:28:47.424Z,67.95
2022-12-11T22:31:16.638Z,72.55
2022-12-11T22:33:43.998Z,69.63
2022-12-11T22:36:11.372Z,74.68
2022-12-11T22:38:39.318Z,68.47
2022-12-11T22:41:22.041Z,76.22
2022-12-11T22:43:49.590Z,74.10
2022-12-11T22:46:17.472Z,76.50
2022-12-11T22:48:44.645Z,66.80
2022-12-11T22:51:11.807Z,79.72
2022-12-11T22:53:39.024Z,69.63
2022-12-11T22:56:10.275Z,73.68
2022-12-11T22:58:37.611Z,65.13
2022-12-11T23:01:08.653Z,77.10
2022-12-11T23:03:35.846Z,73.50
2022-12-11T23:06:05.873Z,74.35
2022-12-11T23:08:33.224Z,67.50
2022-12-11T23:11:00.469Z,78.63
2022-12-11T23:13:27.627Z,70.13
2022-12-11T23:15:54.791Z,83.30
2022-12-11T23:18:21.989Z,76.15
2022-12-11T23:20:49.928Z,74.95
2022-12-11T23:23:17.087Z,73.70
2022-12-11T23:25:44.257Z,73.43
2022-12-11T23:28:11.452Z,66.15
2022-12-11T23:30:38.684Z,74.82
2022-12-11T23:33:06.639Z,78.10
2022-12-11T23:35:34.156Z,73.82
2022-12-11T23:38:01.349Z,79.00
2022-12-11T23:40:28.516Z,74.28
2022-12-11T23:42:55.648Z,80.80
2022-12-11T23:45:22.843Z,73.15
2022-12-11T23:47:50.063Z,67.28
2022-12-11T23:50:17.292Z,69.40
2022-12-11T23:52:44.440Z,69.30
2022-12-11T23:55:12.286Z,70.40
2022-12-11T23:57:39.655Z,74.70
